createdAt,value
2019-05-09T00:04:34.066Z,17.20
2019-05-09T00:09:36.474Z,18.77
2019-05-09T00:14:38.624Z,11.43
2019-05-09T00:19:40.535Z,14.73
2019-05-09T00:24:45.658Z,11.60
2019-05-09T00:29:49.149Z,12.27
2019-05-09T00:34:58.004Z,12.10
2019-05-09T00:40:00.423Z,11.60
2019-05-09T00:45:07.098Z,12.43
2019-05-09T00:50:09.007Z,11.30
2019-05-09T00:55:13.123Z,10.77
2019-05-09T01:00:16.352Z,15.47
2019-05-09T01:05:18.309Z,10.73
2019-05-09T01:10:20.281Z,14.20
2019-05-09T01:15:23.960Z,15.20
2019-05-09T01:20:26.034Z,10.07
2019-05-09T01:25:33.767Z,13.83
2019-05-09T01:30:36.896Z,12.93
2019-05-09T01:35:43.282Z,13.50
2019-05-09T01:40:44.905Z,12.83
2019-05-09T01:45:47.222Z,11.53
2019-05-09T01:50:49.168Z,11.27
2019-05-09T01:55:57.422Z,16.60
2019-05-09T02:01:00.327Z,13.03
2019-05-09T02:06:03.707Z,20.10
2019-05-09T02:11:05.789Z,17.20
2019-05-09T02:16:25.677Z,17.33
2019-05-09T02:21:27.637Z,11.77
2019-05-09T02:26:29.647Z,18.63
2019-05-09T02:31:35.093Z,16.57
2019-05-09T02:36:38.485Z,14.50
2019-05-09T02:41:59.417Z,18.33
2019-05-09T02:46:58.879Z,19.77
2019-05-09T02:52:00.922Z,18.53
2019-05-09T02:57:03.126Z,17.00
2019-05-09T03:02:15.816Z,14.90
2019-05-09T03:07:19.784Z,14.10
2019-05-09T03:12:30.803Z,18.17
2019-05-09T03:17:28.615Z,12.53
2019-05-09T03:22:32.050Z,12.63
2019-05-09T03:27:39.090Z,16.00
2019-05-09T03:32:43.931Z,11.63
2019-05-09T03:37:48.132Z,15.97
2019-05-09T03:42:50.075Z,16.30
2019-05-09T03:47:54.853Z,17.20
2019-05-09T03:53:02.074Z,14.70
2019-05-09T03:58:08.585Z,12.20
2019-05-09T04:03:10.607Z,16.60
2019-05-09T04:08:22.767Z,16.00
2019-05-09T04:13:40.564Z,15.10
2019-05-09T04:18:44.094Z,14.67
2019-05-09T04:23:48.059Z,16.17
2019-05-09T04:28:52.483Z,17.93
2019-05-09T04:33:57.854Z,10.40
2019-05-09T04:38:59.789Z,12.50
2019-05-09T04:44:05.041Z,13.33
2019-05-09T04:49:12.362Z,10.27
2019-05-09T04:54:14.498Z,12.50
2019-05-09T04:59:17.874Z,10.20
2019-05-09T05:04:24.728Z,12.57
2019-05-09T05:09:27.748Z,12.27
2019-05-09T05:14:30.316Z,10.43
2019-05-09T05:19:38.066Z,13.73
2019-05-09T05:24:55.884Z,12.30
2019-05-09T05:29:58.439Z,7.87
2019-05-09T05:35:13.661Z,10.33
2019-05-09T05:40:17.684Z,11.00
2019-05-09T05:45:19.756Z,12.80
2019-05-09T05:50:21.738Z,9.93
2019-05-09T05:55:24.657Z,11.17
2019-05-09T06:00:29.580Z,10.50
2019-05-09T06:05:33.674Z,7.00
2019-05-09T06:10:40.938Z,8.90
2019-05-09T06:15:44.428Z,6.83
2019-05-09T06:20:48.692Z,9.80
2019-05-09T06:25:50.844Z,10.40
2019-05-09T06:30:52.789Z,9.27
2019-05-09T06:35:58.788Z,10.03
2019-05-09T06:41:04.652Z,13.03
2019-05-09T06:46:23.061Z,10.93
2019-05-09T06:51:24.967Z,7.93
2019-05-09T06:56:28.320Z,7.20
2019-05-09T07:01:50.278Z,9.50
2019-05-09T07:07:00.092Z,15.27
2019-05-09T07:12:02.261Z,7.30
2019-05-09T07:17:04.530Z,11.00
2019-05-09T07:22:20.767Z,9.77
2019-05-09T07:27:28.441Z,14.30
2019-05-09T07:32:33.677Z,12.43
2019-05-09T07:37:37.838Z,14.40
2019-05-09T07:42:40.823Z,13.57
2019-05-09T07:47:42.826Z,15.43
2019-05-09T07:52:47.798Z,20.13
2019-05-09T07:57:55.314Z,10.73
2019-05-09T08:02:54.184Z,12.07
2019-05-09T08:07:58.399Z,16.87
2019-05-09T08:12:59.934Z,11.20
2019-05-09T08:18:02.665Z,16.30
2019-05-09T08:23:08.729Z,11.47
2019-05-09T08:28:10.244Z,12.27
2019-05-09T08:33:13.942Z,16.43
2019-05-09T08:38:17.826Z,13.00
2019-05-09T08:43:19.901Z,12.00
2019-05-09T08:48:28.319Z,15.53
2019-05-09T08:53:30.797Z,12.77
2019-05-09T08:58:33.700Z,14.73
2019-05-09T09:03:37.757Z,18.60
2019-05-09T09:08:39.814Z,15.93
2019-05-09T09:13:42.226Z,18.63
2019-05-09T09:18:44.127Z,12.13
2019-05-09T09:23:49.671Z,16.90
2019-05-09T09:28:49.884Z,13.37
2019-05-09T09:33:54.018Z,12.97
2019-05-09T09:38:55.923Z,17.57
2019-05-09T09:43:59.619Z,15.73
2019-05-09T09:49:04.247Z,17.57
2019-05-09T09:54:08.771Z,15.33
2019-05-09T09:59:19.392Z,17.43
2019-05-09T10:04:24.586Z,12.33
2019-05-09T10:09:31.074Z,15.47
2019-05-09T10:14:48.309Z,13.13
2019-05-09T10:19:52.755Z,14.43
2019-05-09T10:24:58.873Z,12.93
2019-05-09T10:30:02.524Z,16.03
2019-05-09T10:35:04.581Z,12.03
2019-05-09T10:40:06.601Z,14.17
2019-05-09T10:45:28.151Z,12.97
2019-05-09T10:50:33.816Z,14.70
2019-05-09T10:55:33.957Z,19.93
2019-05-09T11:00:39.425Z,11.50
2019-05-09T11:05:42.613Z,13.37
2019-05-09T11:10:44.452Z,14.67
2019-05-09T11:15:47.997Z,15.57
2019-05-09T11:20:51.706Z,19.97
2019-05-09T11:25:53.884Z,17.47
2019-05-09T11:30:55.689Z,16.10
2019-05-09T11:35:58.155Z,22.83
2019-05-09T11:41:00.271Z,23.77
2019-05-09T11:46:10.242Z,23.20
2019-05-09T11:51:11.165Z,19.60
2019-05-09T11:56:13.218Z,22.20
2019-05-09T12:01:15.083Z,12.50
2019-05-09T12:06:19.656Z,13.67
2019-05-09T12:11:22.140Z,15.73
2019-05-09T12:16:27.941Z,13.23
2019-05-09T12:21:30.142Z,15.07
2019-05-09T12:26:32.122Z,13.57
2019-05-09T12:31:38.403Z,9.80
2019-05-09T12:36:41.911Z,17.13
2019-05-09T12:41:48.421Z,17.27
2019-05-09T12:46:53.158Z,21.90
2019-05-09T12:51:54.970Z,18.97
2019-05-09T12:56:59.173Z,17.03
2019-05-09T13:02:04.306Z,17.63
2019-05-09T13:07:08.577Z,18.97
2019-05-09T13:12:12.759Z,24.60
2019-05-09T13:17:30.663Z,25.37
2019-05-09T13:22:32.650Z,17.93
2019-05-09T13:27:34.583Z,12.80
2019-05-09T13:32:37.561Z,18.57
2019-05-09T13:37:40.167Z,15.93
2019-05-09T13:42:45.098Z,11.87
2019-05-09T13:47:48.415Z,10.10
2019-05-09T13:52:54.375Z,12.83
2019-05-09T13:57:59.289Z,12.03
2019-05-09T14:02:59.909Z,12.13
2019-05-09T14:08:03.757Z,18.17
2019-05-09T14:13:10.716Z,12.67
2019-05-09T14:18:09.737Z,21.27
2019-05-09T14:23:11.861Z,22.70
2019-05-09T14:28:15.083Z,14.47
2019-05-09T14:33:19.094Z,24.27
2019-05-09T14:38:21.027Z,13.83
2019-05-09T14:43:22.937Z,19.60
2019-05-09T14:48:28.711Z,18.87
2019-05-09T14:53:31.836Z,20.93
2019-05-09T14:58:33.737Z,21.00
2019-05-09T15:03:38.623Z,15.53
2019-05-09T15:08:39.812Z,20.50
2019-05-09T15:13:44.275Z,19.60
2019-05-09T15:18:48.768Z,19.73
2019-05-09T15:23:52.100Z,18.77
2019-05-09T15:28:54.029Z,16.47
2019-05-09T15:33:56.000Z,22.13
2019-05-09T15:38:59.166Z,15.70
2019-05-09T15:44:01.283Z,20.57
2019-05-09T15:49:03.248Z,19.50
2019-05-09T15:54:05.191Z,20.80
2019-05-09T15:59:09.493Z,19.23
2019-05-09T16:04:11.608Z,18.33
2019-05-09T16:09:13.642Z,18.20
2019-05-09T16:14:18.403Z,20.87
2019-05-09T16:19:20.360Z,23.73
2019-05-09T16:24:22.300Z,20.80
2019-05-09T16:29:24.276Z,22.97
2019-05-09T16:34:33.044Z,17.47
2019-05-09T16:39:37.980Z,23.37
2019-05-09T16:44:41.889Z,21.30
2019-05-09T16:49:47.840Z,15.70
2019-05-09T16:54:58.498Z,17.77
2019-05-09T17:00:01.973Z,23.80
2019-05-09T17:05:09.228Z,22.50
2019-05-09T17:10:11.332Z,20.27
2019-05-09T17:15:19.391Z,18.10
2019-05-09T17:20:27.787Z,17.97
2019-05-09T17:25:29.810Z,22.50
2019-05-09T17:30:34.865Z,17.27
2019-05-09T17:35:38.641Z,19.07
2019-05-09T17:40:40.688Z,20.60
2019-05-09T17:45:42.868Z,17.30
2019-05-09T17:50:44.781Z,19.97
2019-05-09T17:55:47.929Z,18.53
2019-05-09T18:00:50.031Z,22.77
2019-05-09T18:05:58.955Z,20.87
2019-05-09T18:11:00.980Z,15.50
2019-05-09T18:16:03.964Z,19.20
2019-05-09T18:21:08.513Z,21.37
2019-05-09T18:26:10.371Z,18.80
2019-05-09T18:31:13.714Z,22.47
2019-05-09T18:36:15.954Z,23.87
2019-05-09T18:41:22.563Z,25.50
2019-05-09T18:46:24.712Z,25.00
2019-05-09T18:51:31.678Z,21.97
2019-05-09T18:56:33.708Z,17.03
2019-05-09T19:01:37.226Z,18.07
2019-05-09T19:06:40.510Z,18.17
2019-05-09T19:11:42.507Z,12.40
2019-05-09T19:17:12.772Z,21.57
2019-05-09T19:22:22.491Z,18.30
2019-05-09T19:27:23.092Z,17.53
2019-05-09T19:32:25.122Z,22.33
2019-05-09T19:37:27.306Z,15.97
2019-05-09T19:42:29.229Z,21.30
2019-05-09T19:47:31.204Z,16.13
2019-05-09T19:52:38.381Z,17.57
2019-05-09T19:57:36.935Z,17.87
2019-05-09T20:02:40.444Z,22.53
2019-05-09T20:07:43.556Z,18.23
2019-05-09T20:12:52.555Z,18.57
2019-05-09T20:17:54.849Z,21.87
2019-05-09T20:22:57.059Z,16.73
2019-05-09T20:27:59.223Z,9.87
2019-05-09T20:33:02.939Z,9.27
2019-05-09T20:38:04.917Z,6.03
2019-05-09T20:43:08.750Z,8.80
2019-05-09T20:48:10.690Z,12.10
2019-05-09T20:53:12.682Z,10.53
2019-05-09T20:58:14.623Z,14.17
2019-05-09T21:03:16.822Z,12.50
2019-05-09T21:08:18.596Z,22.80
2019-05-09T21:13:26.190Z,18.73
2019-05-09T21:18:28.169Z,19.53
2019-05-09T21:23:31.161Z,15.93
2019-05-09T21:28:35.745Z,24.70
2019-05-09T21:33:37.993Z,20.60
2019-05-09T21:38:40.191Z,25.00
2019-05-09T21:43:42.563Z,24.03
2019-05-09T21:48:44.906Z,29.07
2019-05-09T21:53:51.032Z,31.97
2019-05-09T21:58:55.765Z,29.33
2019-05-09T22:03:57.989Z,40.03
2019-05-09T22:09:06.672Z,33.70
2019-05-09T22:14:09.833Z,29.13
2019-05-09T22:19:11.805Z,26.77
2019-05-09T22:24:16.708Z,30.50
2019-05-09T22:29:21.121Z,29.63
2019-05-09T22:34:24.185Z,33.73
2019-05-09T22:39:26.071Z,33.43
2019-05-09T22:44:28.193Z,37.40
2019-05-09T22:49:31.306Z,32.30
2019-05-09T22:54:33.386Z,40.30
2019-05-09T22:59:35.341Z,40.27
2019-05-09T23:04:37.302Z,30.40
2019-05-09T23:09:41.938Z,52.73
2019-05-09T23:14:44.085Z,41.03
2019-05-09T23:19:46.009Z,38.40
2019-05-09T23:24:49.809Z,36.07
2019-05-09T23:29:51.739Z,48.83
2019-05-09T23:34:53.847Z,38.30
2019-05-09T23:39:56.944Z,40.53
2019-05-09T23:44:58.893Z,37.23
2019-05-09T23:50:00.600Z,55.63
2019-05-09T23:55:23.777Z,48.10
